sensor_id;sensor_type;location;lat;lon;timestamp;P1;durP1;ratioP1;P2;durP2;ratioP2
76540;SDS011;65385;55.772;37.658;2023-04-08T00:00:50;10.15;;;4.07;;
76540;SDS011;65385;55.772;37.658;2023-04-08T00:01:50;11.32;;;3.95;;
76540;SDS011;65385;55.772;37.658;2023-04-08T00:02:51;10.23;;;4.20;;
76540;SDS011;65385;55.772;37.658;2023-04-08T00:03:51;8.75;;;4.13;;
76540;SDS011;65385;55.772;37.658;2023-04-08T00:04:52;15.27;;;4.72;;
76540;SDS011;65385;55.772;37.658;2023-04-08T00:05:52;11.73;;;4.32;;
76540;SDS011;65385;55.772;37.658;2023-04-08T00:06:53;10.45;;;3.92;;
76540;SDS011;65385;55.772;37.658;2023-04-08T00:07:54;12.10;;;5.10;;
76540;SDS011;65385;55.772;37.658;2023-04-08T00:08:54;9.40;;;4.00;;
76540;SDS011;65385;55.772;37.658;2023-04-08T00:09:55;10.88;;;3.70;;
76540;SDS011;65385;55.772;37.658;2023-04-08T00:10:56;11.02;;;4.22;;
76540;SDS011;65385;55.772;37.658;2023-04-08T00:11:56;14.00;;;3.60;;
76540;SDS011;65385;55.772;37.658;2023-04-08T00:12:57;11.02;;;3.90;;
76540;SDS011;65385;55.772;37.658;2023-04-08T00:14:01;9.48;;;4.25;;
76540;SDS011;65385;55.772;37.658;2023-04-08T00:15:02;11.43;;;4.25;;
76540;SDS011;65385;55.772;37.658;2023-04-08T00:16:04;11.68;;;4.60;;
76540;SDS011;65385;55.772;37.658;2023-04-08T00:17:04;7.68;;;4.25;;
76540;SDS011;65385;55.772;37.658;2023-04-08T00:18:05;6.97;;;3.58;;
76540;SDS011;65385;55.772;37.658;2023-04-08T00:19:07;7.35;;;3.38;;
76540;SDS011;65385;55.772;37.658;2023-04-08T00:20:08;9.45;;;4.35;;
76540;SDS011;65385;55.772;37.658;2023-04-08T00:21:08;9.30;;;4.00;;
76540;SDS011;65385;55.772;37.658;2023-04-08T00:22:09;9.02;;;4.10;;
76540;SDS011;65385;55.772;37.658;2023-04-08T00:23:10;9.00;;;3.90;;
76540;SDS011;65385;55.772;37.658;2023-04-08T00:24:11;10.93;;;4.13;;
76540;SDS011;65385;55.772;37.658;2023-04-08T00:25:12;8.30;;;3.70;;
76540;SDS011;65385;55.772;37.658;2023-04-08T00:26:12;7.97;;;4.40;;
76540;SDS011;65385;55.772;37.658;2023-04-08T00:27:14;9.95;;;4.38;;
76540;SDS011;65385;55.772;37.658;2023-04-08T00:28:15;10.50;;;5.07;;
76540;SDS011;65385;55.772;37.658;2023-04-08T00:29:16;6.10;;;4.07;;
76540;SDS011;65385;55.772;37.658;2023-04-08T00:30:16;10.57;;;4.15;;
76540;SDS011;65385;55.772;37.658;2023-04-08T00:31:19;8.50;;;4.28;;
76540;SDS011;65385;55.772;37.658;2023-04-08T00:32:19;9.35;;;4.35;;
76540;SDS011;65385;55.772;37.658;2023-04-08T00:33:20;6.03;;;3.85;;
76540;SDS011;65385;55.772;37.658;2023-04-08T00:34:21;8.75;;;4.57;;
76540;SDS011;65385;55.772;37.658;2023-04-08T00:35:21;8.20;;;4.32;;
76540;SDS011;65385;55.772;37.658;2023-04-08T00:36:22;10.32;;;4.38;;
76540;SDS011;65385;55.772;37.658;2023-04-08T00:37:25;9.18;;;4.43;;
76540;SDS011;65385;55.772;37.658;2023-04-08T00:38:26;8.70;;;4.30;;
76540;SDS011;65385;55.772;37.658;2023-04-08T00:39:26;10.23;;;4.93;;
76540;SDS011;65385;55.772;37.658;2023-04-08T00:40:27;13.60;;;4.43;;
76540;SDS011;65385;55.772;37.658;2023-04-08T00:41:28;12.55;;;4.28;;
76540;SDS011;65385;55.772;37.658;2023-04-08T00:42:29;10.10;;;4.18;;
76540;SDS011;65385;55.772;37.658;2023-04-08T00:43:31;10.50;;;4.32;;
76540;SDS011;65385;55.772;37.658;2023-04-08T00:44:32;12.20;;;5.22;;
76540;SDS011;65385;55.772;37.658;2023-04-08T00:45:32;11.35;;;4.32;;
76540;SDS011;65385;55.772;37.658;2023-04-08T00:46:35;10.05;;;4.25;;
76540;SDS011;65385;55.772;37.658;2023-04-08T00:47:38;10.85;;;4.38;;
76540;SDS011;65385;55.772;37.658;2023-04-08T00:48:39;12.95;;;4.70;;
76540;SDS011;65385;55.772;37.658;2023-04-08T00:49:39;10.65;;;3.95;;
76540;SDS011;65385;55.772;37.658;2023-04-08T00:50:41;9.85;;;4.35;;
76540;SDS011;65385;55.772;37.658;2023-04-08T00:51:42;23.55;;;5.78;;
76540;SDS011;65385;55.772;37.658;2023-04-08T00:52:43;9.70;;;4.25;;
76540;SDS011;65385;55.772;37.658;2023-04-08T00:53:44;13.23;;;4.22;;
76540;SDS011;65385;55.772;37.658;2023-04-08T00:54:44;14.50;;;4.22;;
76540;SDS011;65385;55.772;37.658;2023-04-08T00:55:45;12.38;;;4.72;;
76540;SDS011;65385;55.772;37.658;2023-04-08T00:56:46;10.65;;;4.40;;
76540;SDS011;65385;55.772;37.658;2023-04-08T00:57:47;9.98;;;4.50;;
76540;SDS011;65385;55.772;37.658;2023-04-08T00:58:48;11.48;;;4.10;;
76540;SDS011;65385;55.772;37.658;2023-04-08T00:59:50;10.07;;;4.47;;
76540;SDS011;65385;55.772;37.658;2023-04-08T01:00:57;9.20;;;4.97;;
76540;SDS011;65385;55.772;37.658;2023-04-08T01:03:26;13.23;;;4.00;;
76540;SDS011;65385;55.772;37.658;2023-04-08T01:04:43;12.38;;;4.45;;
76540;SDS011;65385;55.772;37.658;2023-04-08T01:07:26;9.52;;;4.28;;
76540;SDS011;65385;55.772;37.658;2023-04-08T01:08:30;7.75;;;3.95;;
76540;SDS011;65385;55.772;37.658;2023-04-08T01:09:32;11.73;;;4.25;;
76540;SDS011;65385;55.772;37.658;2023-04-08T01:10:37;8.70;;;4.22;;
76540;SDS011;65385;55.772;37.658;2023-04-08T01:11:43;8.32;;;3.92;;
76540;SDS011;65385;55.772;37.658;2023-04-08T01:12:47;13.52;;;4.10;;
76540;SDS011;65385;55.772;37.658;2023-04-08T01:13:51;8.35;;;4.13;;
76540;SDS011;65385;55.772;37.658;2023-04-08T01:14:56;9.30;;;3.50;;
76540;SDS011;65385;55.772;37.658;2023-04-08T01:16:00;10.88;;;4.72;;
76540;SDS011;65385;55.772;37.658;2023-04-08T01:17:01;8.77;;;4.00;;
76540;SDS011;65385;55.772;37.658;2023-04-08T01:18:05;11.13;;;3.83;;
76540;SDS011;65385;55.772;37.658;2023-04-08T01:19:07;12.00;;;3.80;;
76540;SDS011;65385;55.772;37.658;2023-04-08T01:20:09;14.18;;;4.20;;
76540;SDS011;65385;55.772;37.658;2023-04-08T01:21:12;9.73;;;4.03;;
76540;SDS011;65385;55.772;37.658;2023-04-08T01:22:22;10.68;;;4.55;;
76540;SDS011;65385;55.772;37.658;2023-04-08T01:25:00;6.35;;;3.63;;
76540;SDS011;65385;55.772;37.658;2023-04-08T01:26:09;7.07;;;3.78;;
76540;SDS011;65385;55.772;37.658;2023-04-08T01:27:21;12.20;;;3.85;;
76540;SDS011;65385;55.772;37.658;2023-04-08T01:28:22;5.88;;;3.65;;
76540;SDS011;65385;55.772;37.658;2023-04-08T01:29:24;9.20;;;4.32;;
76540;SDS011;65385;55.772;37.658;2023-04-08T01:30:25;8.95;;;3.80;;
76540;SDS011;65385;55.772;37.658;2023-04-08T01:31:30;10.18;;;4.90;;
76540;SDS011;65385;55.772;37.658;2023-04-08T01:32:32;8.07;;;3.78;;
76540;SDS011;65385;55.772;37.658;2023-04-08T01:33:33;9.95;;;3.90;;
76540;SDS011;65385;55.772;37.658;2023-04-08T01:34:35;12.60;;;4.32;;
76540;SDS011;65385;55.772;37.658;2023-04-08T01:35:37;9.45;;;3.75;;
76540;SDS011;65385;55.772;37.658;2023-04-08T01:36:38;9.45;;;4.70;;
76540;SDS011;65385;55.772;37.658;2023-04-08T01:37:40;8.52;;;3.97;;
76540;SDS011;65385;55.772;37.658;2023-04-08T01:38:41;8.05;;;3.83;;
76540;SDS011;65385;55.772;37.658;2023-04-08T01:39:42;12.18;;;4.72;;
76540;SDS011;65385;55.772;37.658;2023-04-08T01:40:46;11.68;;;4.13;;
76540;SDS011;65385;55.772;37.658;2023-04-08T01:41:47;11.00;;;3.92;;
76540;SDS011;65385;55.772;37.658;2023-04-08T01:42:54;8.02;;;4.13;;
76540;SDS011;65385;55.772;37.658;2023-04-08T01:43:56;8.38;;;4.07;;
76540;SDS011;65385;55.772;37.658;2023-04-08T01:44:57;6.63;;;3.67;;
76540;SDS011;65385;55.772;37.658;2023-04-08T01:45:59;10.40;;;4.97;;
76540;SDS011;65385;55.772;37.658;2023-04-08T01:47:01;8.50;;;4.90;;
76540;SDS011;65385;55.772;37.658;2023-04-08T01:48:02;8.23;;;4.50;;
76540;SDS011;65385;55.772;37.658;2023-04-08T01:49:04;10.93;;;4.40;;
76540;SDS011;65385;55.772;37.658;2023-04-08T01:50:08;9.48;;;4.35;;
76540;SDS011;65385;55.772;37.658;2023-04-08T01:51:08;14.77;;;4.63;;
76540;SDS011;65385;55.772;37.658;2023-04-08T01:52:10;11.90;;;4.30;;
76540;SDS011;65385;55.772;37.658;2023-04-08T01:53:12;8.13;;;3.42;;
76540;SDS011;65385;55.772;37.658;2023-04-08T01:54:13;10.63;;;3.65;;
76540;SDS011;65385;55.772;37.658;2023-04-08T01:55:15;7.18;;;4.40;;
76540;SDS011;65385;55.772;37.658;2023-04-08T01:56:17;9.98;;;5.40;;
76540;SDS011;65385;55.772;37.658;2023-04-08T01:57:22;8.65;;;4.43;;
76540;SDS011;65385;55.772;37.658;2023-04-08T01:58:24;8.13;;;3.97;;
76540;SDS011;65385;55.772;37.658;2023-04-08T01:59:30;13.10;;;4.93;;
76540;SDS011;65385;55.772;37.658;2023-04-08T02:00:35;9.88;;;4.28;;
76540;SDS011;65385;55.772;37.658;2023-04-08T02:01:37;10.65;;;4.25;;
76540;SDS011;65385;55.772;37.658;2023-04-08T02:02:39;11.70;;;4.72;;
76540;SDS011;65385;55.772;37.658;2023-04-08T02:03:42;14.65;;;4.60;;
76540;SDS011;65385;55.772;37.658;2023-04-08T02:04:44;9.15;;;4.53;;
76540;SDS011;65385;55.772;37.658;2023-04-08T02:05:45;9.05;;;4.28;;
76540;SDS011;65385;55.772;37.658;2023-04-08T02:06:45;10.25;;;4.07;;
76540;SDS011;65385;55.772;37.658;2023-04-08T02:07:47;8.82;;;4.88;;
76540;SDS011;65385;55.772;37.658;2023-04-08T02:08:48;8.65;;;4.13;;
76540;SDS011;65385;55.772;37.658;2023-04-08T02:09:49;9.95;;;4.95;;
76540;SDS011;65385;55.772;37.658;2023-04-08T02:10:50;9.95;;;3.97;;
76540;SDS011;65385;55.772;37.658;2023-04-08T02:11:51;10.82;;;4.22;;
76540;SDS011;65385;55.772;37.658;2023-04-08T02:12:51;13.45;;;4.57;;
76540;SDS011;65385;55.772;37.658;2023-04-08T02:13:52;9.95;;;4.03;;
76540;SDS011;65385;55.772;37.658;2023-04-08T02:14:53;10.43;;;5.50;;
76540;SDS011;65385;55.772;37.658;2023-04-08T02:16:15;8.13;;;4.65;;
76540;SDS011;65385;55.772;37.658;2023-04-08T02:17:26;6.85;;;3.70;;
76540;SDS011;65385;55.772;37.658;2023-04-08T02:18:33;8.90;;;5.50;;
76540;SDS011;65385;55.772;37.658;2023-04-08T02:19:39;9.80;;;4.47;;
76540;SDS011;65385;55.772;37.658;2023-04-08T02:20:46;10.43;;;5.35;;
76540;SDS011;65385;55.772;37.658;2023-04-08T02:21:54;8.55;;;4.55;;
76540;SDS011;65385;55.772;37.658;2023-04-08T02:23:09;8.68;;;4.07;;
76540;SDS011;65385;55.772;37.658;2023-04-08T02:24:16;19.27;;;5.78;;
76540;SDS011;65385;55.772;37.658;2023-04-08T02:25:19;9.32;;;4.20;;
76540;SDS011;65385;55.772;37.658;2023-04-08T02:26:22;9.50;;;3.60;;
76540;SDS011;65385;55.772;37.658;2023-04-08T02:27:24;8.38;;;4.38;;
76540;SDS011;65385;55.772;37.658;2023-04-08T02:28:28;8.25;;;4.55;;
76540;SDS011;65385;55.772;37.658;2023-04-08T02:29:30;16.48;;;4.57;;
76540;SDS011;65385;55.772;37.658;2023-04-08T02:30:32;7.72;;;4.00;;
76540;SDS011;65385;55.772;37.658;2023-04-08T02:31:36;7.75;;;3.60;;
76540;SDS011;65385;55.772;37.658;2023-04-08T02:32:40;7.00;;;3.90;;
76540;SDS011;65385;55.772;37.658;2023-04-08T02:33:42;10.70;;;4.45;;
76540;SDS011;65385;55.772;37.658;2023-04-08T02:34:43;11.27;;;4.72;;
76540;SDS011;65385;55.772;37.658;2023-04-08T02:35:45;11.13;;;4.70;;
76540;SDS011;65385;55.772;37.658;2023-04-08T02:36:47;14.60;;;4.80;;
76540;SDS011;65385;55.772;37.658;2023-04-08T02:37:50;6.75;;;3.85;;
76540;SDS011;65385;55.772;37.658;2023-04-08T02:38:51;8.90;;;4.28;;
76540;SDS011;65385;55.772;37.658;2023-04-08T02:39:52;11.68;;;4.63;;
76540;SDS011;65385;55.772;37.658;2023-04-08T02:40:52;10.27;;;4.50;;
76540;SDS011;65385;55.772;37.658;2023-04-08T02:41:53;6.93;;;3.60;;
76540;SDS011;65385;55.772;37.658;2023-04-08T02:42:55;13.60;;;3.97;;
76540;SDS011;65385;55.772;37.658;2023-04-08T02:43:57;11.43;;;4.00;;
76540;SDS011;65385;55.772;37.658;2023-04-08T02:44:58;13.93;;;4.63;;
76540;SDS011;65385;55.772;37.658;2023-04-08T02:45:59;9.90;;;4.22;;
76540;SDS011;65385;55.772;37.658;2023-04-08T02:47:02;11.23;;;4.40;;
76540;SDS011;65385;55.772;37.658;2023-04-08T02:48:03;9.20;;;4.38;;
76540;SDS011;65385;55.772;37.658;2023-04-08T02:49:06;9.60;;;4.53;;
76540;SDS011;65385;55.772;37.658;2023-04-08T02:50:07;11.57;;;4.18;;
76540;SDS011;65385;55.772;37.658;2023-04-08T02:51:08;8.88;;;4.18;;
76540;SDS011;65385;55.772;37.658;2023-04-08T02:52:09;10.65;;;4.57;;
76540;SDS011;65385;55.772;37.658;2023-04-08T02:53:09;9.60;;;4.97;;
76540;SDS011;65385;55.772;37.658;2023-04-08T02:54:11;7.63;;;4.20;;
76540;SDS011;65385;55.772;37.658;2023-04-08T02:55:11;11.23;;;4.80;;
76540;SDS011;65385;55.772;37.658;2023-04-08T02:56:12;16.55;;;4.22;;
76540;SDS011;65385;55.772;37.658;2023-04-08T02:57:13;9.85;;;4.72;;
76540;SDS011;65385;55.772;37.658;2023-04-08T02:58:13;10.43;;;4.30;;
76540;SDS011;65385;55.772;37.658;2023-04-08T02:59:14;11.00;;;4.85;;
76540;SDS011;65385;55.772;37.658;2023-04-08T03:00:15;11.23;;;4.50;;
76540;SDS011;65385;55.772;37.658;2023-04-08T03:01:16;11.52;;;5.60;;
76540;SDS011;65385;55.772;37.658;2023-04-08T03:02:16;13.60;;;5.03;;
76540;SDS011;65385;55.772;37.658;2023-04-08T03:03:17;9.07;;;4.03;;
76540;SDS011;65385;55.772;37.658;2023-04-08T03:04:17;9.07;;;4.55;;
76540;SDS011;65385;55.772;37.658;2023-04-08T03:05:18;9.13;;;4.68;;
76540;SDS011;65385;55.772;37.658;2023-04-08T03:06:19;7.65;;;4.60;;
76540;SDS011;65385;55.772;37.658;2023-04-08T03:07:19;9.40;;;4.55;;
76540;SDS011;65385;55.772;37.658;2023-04-08T03:08:20;10.60;;;4.13;;
76540;SDS011;65385;55.772;37.658;2023-04-08T03:09:21;12.45;;;4.72;;
76540;SDS011;65385;55.772;37.658;2023-04-08T03:10:21;15.90;;;5.30;;
76540;SDS011;65385;55.772;37.658;2023-04-08T03:11:22;10.90;;;5.53;;
76540;SDS011;65385;55.772;37.658;2023-04-08T03:12:23;12.85;;;5.28;;
76540;SDS011;65385;55.772;37.658;2023-04-08T03:13:23;8.73;;;4.22;;
76540;SDS011;65385;55.772;37.658;2023-04-08T03:14:24;9.68;;;4.78;;
76540;SDS011;65385;55.772;37.658;2023-04-08T03:15:24;10.85;;;4.38;;
76540;SDS011;65385;55.772;37.658;2023-04-08T03:16:25;10.27;;;4.60;;
76540;SDS011;65385;55.772;37.658;2023-04-08T03:17:26;13.40;;;5.07;;
76540;SDS011;65385;55.772;37.658;2023-04-08T03:18:26;13.57;;;5.22;;
76540;SDS011;65385;55.772;37.658;2023-04-08T03:19:27;9.50;;;4.90;;
76540;SDS011;65385;55.772;37.658;2023-04-08T03:20:27;14.73;;;4.68;;
76540;SDS011;65385;55.772;37.658;2023-04-08T03:21:28;10.77;;;4.47;;
76540;SDS011;65385;55.772;37.658;2023-04-08T03:22:30;11.95;;;5.90;;
76540;SDS011;65385;55.772;37.658;2023-04-08T03:23:31;10.32;;;5.10;;
76540;SDS011;65385;55.772;37.658;2023-04-08T03:24:31;11.35;;;5.63;;
76540;SDS011;65385;55.772;37.658;2023-04-08T03:25:32;15.57;;;4.97;;
76540;SDS011;65385;55.772;37.658;2023-04-08T03:26:32;10.30;;;4.88;;
76540;SDS011;65385;55.772;37.658;2023-04-08T03:27:33;10.02;;;4.80;;
76540;SDS011;65385;55.772;37.658;2023-04-08T03:28:33;12.00;;;5.10;;
76540;SDS011;65385;55.772;37.658;2023-04-08T03:29:34;11.27;;;5.50;;
76540;SDS011;65385;55.772;37.658;2023-04-08T03:30:35;11.55;;;5.53;;
76540;SDS011;65385;55.772;37.658;2023-04-08T03:31:35;13.57;;;4.63;;
76540;SDS011;65385;55.772;37.658;2023-04-08T03:32:36;9.90;;;4.57;;
76540;SDS011;65385;55.772;37.658;2023-04-08T03:33:37;10.40;;;5.15;;
76540;SDS011;65385;55.772;37.658;2023-04-08T03:34:37;11.82;;;4.97;;
76540;SDS011;65385;55.772;37.658;2023-04-08T03:35:38;14.50;;;5.63;;
76540;SDS011;65385;55.772;37.658;2023-04-08T03:36:38;11.52;;;4.78;;
76540;SDS011;65385;55.772;37.658;2023-04-08T03:37:39;12.07;;;4.55;;
76540;SDS011;65385;55.772;37.658;2023-04-08T03:38:39;9.27;;;4.95;;
76540;SDS011;65385;55.772;37.658;2023-04-08T03:39:40;8.27;;;4.72;;
76540;SDS011;65385;55.772;37.658;2023-04-08T03:40:41;12.65;;;5.75;;
76540;SDS011;65385;55.772;37.658;2023-04-08T03:41:41;10.00;;;4.47;;
76540;SDS011;65385;55.772;37.658;2023-04-08T03:42:41;9.30;;;5.05;;
76540;SDS011;65385;55.772;37.658;2023-04-08T03:43:42;10.23;;;4.57;;
76540;SDS011;65385;55.772;37.658;2023-04-08T03:44:43;15.13;;;5.20;;
76540;SDS011;65385;55.772;37.658;2023-04-08T03:45:44;13.30;;;5.25;;
76540;SDS011;65385;55.772;37.658;2023-04-08T03:46:44;12.73;;;5.07;;
76540;SDS011;65385;55.772;37.658;2023-04-08T03:47:45;13.18;;;5.47;;
76540;SDS011;65385;55.772;37.658;2023-04-08T03:48:45;12.45;;;4.93;;
76540;SDS011;65385;55.772;37.658;2023-04-08T03:49:46;10.35;;;4.85;;
76540;SDS011;65385;55.772;37.658;2023-04-08T03:50:46;11.23;;;5.32;;
76540;SDS011;65385;55.772;37.658;2023-04-08T03:51:47;15.57;;;4.90;;
76540;SDS011;65385;55.772;37.658;2023-04-08T03:52:47;11.45;;;5.40;;
76540;SDS011;65385;55.772;37.658;2023-04-08T03:53:48;12.38;;;4.72;;
76540;SDS011;65385;55.772;37.658;2023-04-08T03:54:48;11.90;;;4.93;;
76540;SDS011;65385;55.772;37.658;2023-04-08T03:55:49;14.57;;;5.28;;
76540;SDS011;65385;55.772;37.658;2023-04-08T03:56:50;11.75;;;5.20;;
76540;SDS011;65385;55.772;37.658;2023-04-08T03:57:50;10.77;;;5.85;;
76540;SDS011;65385;55.772;37.658;2023-04-08T03:58:51;14.55;;;4.95;;
76540;SDS011;65385;55.772;37.658;2023-04-08T03:59:52;10.57;;;5.45;;
76540;SDS011;65385;55.772;37.658;2023-04-08T04:00:52;9.68;;;4.40;;
76540;SDS011;65385;55.772;37.658;2023-04-08T04:01:53;13.00;;;5.78;;
76540;SDS011;65385;55.772;37.658;2023-04-08T04:02:53;10.32;;;5.32;;
76540;SDS011;65385;55.772;37.658;2023-04-08T04:03:55;10.90;;;5.45;;
76540;SDS011;65385;55.772;37.658;2023-04-08T04:04:55;10.80;;;5.05;;
76540;SDS011;65385;55.772;37.658;2023-04-08T04:05:56;14.20;;;5.85;;
76540;SDS011;65385;55.772;37.658;2023-04-08T04:06:56;11.13;;;5.97;;
76540;SDS011;65385;55.772;37.658;2023-04-08T04:07:57;14.18;;;5.28;;
76540;SDS011;65385;55.772;37.658;2023-04-08T04:08:57;8.30;;;5.30;;
76540;SDS011;65385;55.772;37.658;2023-04-08T04:09:58;9.70;;;5.30;;
76540;SDS011;65385;55.772;37.658;2023-04-08T04:10:59;11.98;;;5.45;;
76540;SDS011;65385;55.772;37.658;2023-04-08T04:11:59;10.13;;;4.85;;
76540;SDS011;65385;55.772;37.658;2023-04-08T04:13:00;12.45;;;5.18;;
76540;SDS011;65385;55.772;37.658;2023-04-08T04:14:00;11.82;;;5.57;;
76540;SDS011;65385;55.772;37.658;2023-04-08T04:15:01;13.48;;;5.72;;
76540;SDS011;65385;55.772;37.658;2023-04-08T04:16:02;12.70;;;5.22;;
76540;SDS011;65385;55.772;37.658;2023-04-08T04:17:03;12.27;;;5.70;;
76540;SDS011;65385;55.772;37.658;2023-04-08T04:18:03;13.25;;;5.63;;
76540;SDS011;65385;55.772;37.658;2023-04-08T04:19:04;14.57;;;5.30;;
76540;SDS011;65385;55.772;37.658;2023-04-08T04:20:05;11.20;;;5.43;;
76540;SDS011;65385;55.772;37.658;2023-04-08T04:21:06;14.40;;;6.10;;
76540;SDS011;65385;55.772;37.658;2023-04-08T04:22:07;10.00;;;4.88;;
76540;SDS011;65385;55.772;37.658;2023-04-08T04:23:07;14.15;;;5.65;;
76540;SDS011;65385;55.772;37.658;2023-04-08T04:24:08;17.70;;;5.88;;
76540;SDS011;65385;55.772;37.658;2023-04-08T04:25:09;11.95;;;5.25;;
76540;SDS011;65385;55.772;37.658;2023-04-08T04:26:10;13.18;;;5.38;;
76540;SDS011;65385;55.772;37.658;2023-04-08T04:27:11;10.85;;;5.32;;
76540;SDS011;65385;55.772;37.658;2023-04-08T04:28:12;13.95;;;5.50;;
76540;SDS011;65385;55.772;37.658;2023-04-08T04:29:13;11.60;;;5.13;;
76540;SDS011;65385;55.772;37.658;2023-04-08T04:30:13;10.60;;;5.35;;
76540;SDS011;65385;55.772;37.658;2023-04-08T04:31:19;12.00;;;5.00;;
76540;SDS011;65385;55.772;37.658;2023-04-08T04:32:20;10.82;;;5.75;;
76540;SDS011;65385;55.772;37.658;2023-04-08T04:33:21;10.90;;;5.32;;
76540;SDS011;65385;55.772;37.658;2023-04-08T04:34:22;11.77;;;5.82;;
76540;SDS011;65385;55.772;37.658;2023-04-08T04:35:22;14.13;;;6.43;;
76540;SDS011;65385;55.772;37.658;2023-04-08T04:36:23;10.15;;;5.70;;
76540;SDS011;65385;55.772;37.658;2023-04-08T04:37:24;12.25;;;5.88;;
76540;SDS011;65385;55.772;37.658;2023-04-08T04:38:25;9.60;;;5.53;;
76540;SDS011;65385;55.772;37.658;2023-04-08T04:39:26;12.27;;;6.07;;
76540;SDS011;65385;55.772;37.658;2023-04-08T04:40:26;11.23;;;5.65;;
76540;SDS011;65385;55.772;37.658;2023-04-08T04:41:27;11.82;;;6.15;;
76540;SDS011;65385;55.772;37.658;2023-04-08T04:42:27;13.15;;;5.68;;
76540;SDS011;65385;55.772;37.658;2023-04-08T04:43:28;12.57;;;5.75;;
76540;SDS011;65385;55.772;37.658;2023-04-08T04:44:29;12.60;;;5.78;;
76540;SDS011;65385;55.772;37.658;2023-04-08T04:45:29;11.13;;;5.70;;
76540;SDS011;65385;55.772;37.658;2023-04-08T04:46:30;12.70;;;6.00;;
76540;SDS011;65385;55.772;37.658;2023-04-08T04:47:31;15.75;;;6.68;;
76540;SDS011;65385;55.772;37.658;2023-04-08T04:48:32;13.43;;;6.28;;
76540;SDS011;65385;55.772;37.658;2023-04-08T04:49:33;12.13;;;5.60;;
76540;SDS011;65385;55.772;37.658;2023-04-08T04:50:33;9.88;;;5.50;;
76540;SDS011;65385;55.772;37.658;2023-04-08T04:51:34;13.77;;;6.55;;
76540;SDS011;65385;55.772;37.658;2023-04-08T04:52:35;11.27;;;6.13;;
76540;SDS011;65385;55.772;37.658;2023-04-08T04:53:36;12.75;;;5.82;;
76540;SDS011;65385;55.772;37.658;2023-04-08T04:54:36;13.93;;;6.28;;
76540;SDS011;65385;55.772;37.658;2023-04-08T04:55:37;11.00;;;6.75;;
76540;SDS011;65385;55.772;37.658;2023-04-08T04:56:38;11.48;;;6.13;;
76540;SDS011;65385;55.772;37.658;2023-04-08T04:57:38;9.60;;;5.70;;
76540;SDS011;65385;55.772;37.658;2023-04-08T04:58:39;12.45;;;5.90;;
76540;SDS011;65385;55.772;37.658;2023-04-08T04:59:40;12.93;;;5.95;;
76540;SDS011;65385;55.772;37.658;2023-04-08T05:00:40;15.52;;;6.20;;
76540;SDS011;65385;55.772;37.658;2023-04-08T05:01:41;14.35;;;6.43;;
76540;SDS011;65385;55.772;37.658;2023-04-08T05:02:41;12.13;;;5.85;;
76540;SDS011;65385;55.772;37.658;2023-04-08T05:03:42;13.18;;;5.80;;
76540;SDS011;65385;55.772;37.658;2023-04-08T05:04:42;11.43;;;5.47;;
76540;SDS011;65385;55.772;37.658;2023-04-08T05:05:43;13.93;;;5.75;;
76540;SDS011;65385;55.772;37.658;2023-04-08T05:06:44;14.88;;;5.90;;
76540;SDS011;65385;55.772;37.658;2023-04-08T05:07:44;15.02;;;6.00;;
76540;SDS011;65385;55.772;37.658;2023-04-08T05:08:45;10.70;;;5.60;;
76540;SDS011;65385;55.772;37.658;2023-04-08T05:09:46;12.50;;;6.07;;
76540;SDS011;65385;55.772;37.658;2023-04-08T05:10:46;14.45;;;6.30;;
76540;SDS011;65385;55.772;37.658;2023-04-08T05:11:49;10.25;;;5.75;;
76540;SDS011;65385;55.772;37.658;2023-04-08T05:12:50;15.98;;;6.32;;
76540;SDS011;65385;55.772;37.658;2023-04-08T05:13:50;14.07;;;5.45;;
76540;SDS011;65385;55.772;37.658;2023-04-08T05:14:51;11.05;;;5.65;;
76540;SDS011;65385;55.772;37.658;2023-04-08T05:15:51;11.70;;;6.18;;
76540;SDS011;65385;55.772;37.658;2023-04-08T05:16:52;14.13;;;5.97;;
76540;SDS011;65385;55.772;37.658;2023-04-08T05:17:52;14.50;;;6.90;;
76540;SDS011;65385;55.772;37.658;2023-04-08T05:18:53;15.50;;;6.57;;
76540;SDS011;65385;55.772;37.658;2023-04-08T05:19:53;16.00;;;6.50;;
76540;SDS011;65385;55.772;37.658;2023-04-08T05:20:54;14.60;;;6.07;;
76540;SDS011;65385;55.772;37.658;2023-04-08T05:21:55;13.95;;;6.30;;
76540;SDS011;65385;55.772;37.658;2023-04-08T05:22:55;17.73;;;6.32;;
76540;SDS011;65385;55.772;37.658;2023-04-08T05:23:56;14.05;;;6.80;;
76540;SDS011;65385;55.772;37.658;2023-04-08T05:24:56;13.15;;;6.80;;
76540;SDS011;65385;55.772;37.658;2023-04-08T05:25:57;15.13;;;6.68;;
76540;SDS011;65385;55.772;37.658;2023-04-08T05:26:57;12.63;;;6.22;;
76540;SDS011;65385;55.772;37.658;2023-04-08T05:27:58;14.73;;;6.40;;
76540;SDS011;65385;55.772;37.658;2023-04-08T05:28:58;12.02;;;5.97;;
76540;SDS011;65385;55.772;37.658;2023-04-08T05:29:59;15.23;;;6.18;;
76540;SDS011;65385;55.772;37.658;2023-04-08T05:31:00;17.95;;;6.88;;
76540;SDS011;65385;55.772;37.658;2023-04-08T05:32:01;15.15;;;6.53;;
76540;SDS011;65385;55.772;37.658;2023-04-08T05:33:01;11.52;;;6.40;;
76540;SDS011;65385;55.772;37.658;2023-04-08T05:34:02;12.25;;;5.93;;
76540;SDS011;65385;55.772;37.658;2023-04-08T05:35:03;16.17;;;6.38;;
76540;SDS011;65385;55.772;37.658;2023-04-08T05:36:04;10.52;;;6.38;;
76540;SDS011;65385;55.772;37.658;2023-04-08T05:37:05;12.07;;;6.15;;
76540;SDS011;65385;55.772;37.658;2023-04-08T05:38:06;13.75;;;5.55;;
76540;SDS011;65385;55.772;37.658;2023-04-08T05:39:06;12.15;;;6.32;;
76540;SDS011;65385;55.772;37.658;2023-04-08T05:40:07;11.43;;;5.82;;
76540;SDS011;65385;55.772;37.658;2023-04-08T05:41:08;10.40;;;5.60;;
76540;SDS011;65385;55.772;37.658;2023-04-08T05:42:09;12.68;;;5.32;;
76540;SDS011;65385;55.772;37.658;2023-04-08T05:43:12;10.93;;;6.35;;
76540;SDS011;65385;55.772;37.658;2023-04-08T05:44:12;13.30;;;5.70;;
76540;SDS011;65385;55.772;37.658;2023-04-08T05:45:13;12.35;;;5.65;;
76540;SDS011;65385;55.772;37.658;2023-04-08T05:46:14;13.93;;;7.10;;
76540;SDS011;65385;55.772;37.658;2023-04-08T05:47:14;12.57;;;6.28;;
76540;SDS011;65385;55.772;37.658;2023-04-08T05:48:15;12.75;;;5.72;;
76540;SDS011;65385;55.772;37.658;2023-04-08T05:49:16;16.08;;;6.10;;
76540;SDS011;65385;55.772;37.658;2023-04-08T05:50:16;13.07;;;5.68;;
76540;SDS011;65385;55.772;37.658;2023-04-08T05:51:17;10.90;;;5.93;;
76540;SDS011;65385;55.772;37.658;2023-04-08T05:52:18;15.45;;;5.95;;
76540;SDS011;65385;55.772;37.658;2023-04-08T05:53:18;13.32;;;6.10;;
76540;SDS011;65385;55.772;37.658;2023-04-08T05:54:19;11.30;;;6.30;;
76540;SDS011;65385;55.772;37.658;2023-04-08T05:55:19;13.63;;;5.93;;
76540;SDS011;65385;55.772;37.658;2023-04-08T05:56:20;12.95;;;5.95;;
76540;SDS011;65385;55.772;37.658;2023-04-08T05:57:21;10.80;;;5.55;;
76540;SDS011;65385;55.772;37.658;2023-04-08T05:58:21;16.35;;;6.53;;
76540;SDS011;65385;55.772;37.658;2023-04-08T05:59:22;10.77;;;5.68;;
76540;SDS011;65385;55.772;37.658;2023-04-08T06:00:22;10.77;;;6.03;;
76540;SDS011;65385;55.772;37.658;2023-04-08T06:01:23;11.35;;;5.50;;
76540;SDS011;65385;55.772;37.658;2023-04-08T06:02:25;14.20;;;6.65;;
76540;SDS011;65385;55.772;37.658;2023-04-08T06:03:25;15.05;;;5.90;;
76540;SDS011;65385;55.772;37.658;2023-04-08T06:04:26;13.30;;;6.70;;
76540;SDS011;65385;55.772;37.658;2023-04-08T06:05:26;12.85;;;6.43;;
76540;SDS011;65385;55.772;37.658;2023-04-08T06:06:27;12.85;;;5.90;;